Time;durP1;ratioP1;P1;durP2;ratioP2;P2;SDS_P1;SDS_P2;PMS_P1;PMS_P2;Temp;Humidity;BMP_temperature;BMP_pressure;BME280_temperature;BME280_humidity;BME280_pressure;Samples;Min_cycle;Max_cycle;Signal;HPM_P1;HPM_P2
2024/01/24 00:00:08;;;;;;;2.10;1.33;;;;;;;6.45;100.00;100005.94;4991914;28;20038;-81
2024/01/24 00:02:36;;;;;;;3.53;1.45;;;;;;;6.26;100.00;99980.41;4963196;28;20344;-81
2024/01/24 00:05:01;;;;;;;2.83;1.90;;;;;;;6.39;100.00;99987.97;4971369;28;20485;-80
2024/01/24 00:07:28;;;;;;;1.97;1.73;;;;;;;6.33;100.00;99966.38;4976299;28;20041;-81
2024/01/24 00:09:53;;;;;;;1.77;1.30;;;;;;;6.45;100.00;99966.16;4976386;28;20045;-79
2024/01/24 00:12:18;;;;;;;2.60;1.87;;;;;;;6.42;100.00;99963.81;4975965;28;20042;-79
2024/01/24 00:14:44;;;;;;;4.33;1.50;;;;;;;6.50;100.00;99958.56;4964918;28;20031;-81
2024/01/24 00:17:09;;;;;;;3.33;1.90;;;;;;;6.55;100.00;99927.94;4987840;28;20661;-80
2024/01/24 00:19:35;;;;;;;3.07;1.93;;;;;;;6.42;100.00;99926.69;4989905;28;20027;-80
2024/01/24 00:22:00;;;;;;;7.03;1.60;;;;;;;6.44;100.00;99944.09;4984476;28;20301;-82
2024/01/24 00:24:25;;;;;;;2.87;2.07;;;;;;;6.43;100.00;99931.81;4965784;28;20280;-81
2024/01/24 00:26:51;;;;;;;2.57;2.00;;;;;;;6.59;100.00;99954.16;4984373;28;20034;-81
2024/01/24 00:29:16;;;;;;;3.50;2.03;;;;;;;6.61;100.00;99941.56;4997916;28;20080;-81
2024/01/24 00:31:41;;;;;;;1.53;1.40;;;;;;;6.76;100.00;99932.84;4972420;28;20516;-81
2024/01/24 00:34:07;;;;;;;3.90;1.60;;;;;;;6.65;100.00;99917.22;4989283;28;20321;-82
2024/01/24 00:36:32;;;;;;;1.67;1.33;;;;;;;6.78;100.00;99913.31;4957181;28;20066;-80
2024/01/24 00:38:57;;;;;;;2.23;1.73;;;;;;;6.72;100.00;99896.22;4988884;28;20039;-81
2024/01/24 00:41:23;;;;;;;2.40;1.50;;;;;;;6.87;100.00;99888.47;4998323;28;21277;-80
2024/01/24 00:43:48;;;;;;;2.23;1.50;;;;;;;6.82;100.00;99882.81;4971486;28;20031;-80
2024/01/24 00:46:13;;;;;;;2.37;1.63;;;;;;;6.87;100.00;99885.81;5004021;28;20042;-79
2024/01/24 00:48:39;;;;;;;2.93;2.03;;;;;;;6.98;100.00;99882.88;4955781;28;20662;-80
2024/01/24 00:51:05;;;;;;;2.60;2.00;;;;;;;6.90;100.00;99881.00;4969618;23;20398;-90
2024/01/24 00:53:33;;;;;;;2.20;1.70;;;;;;;6.94;100.00;99876.22;5025481;28;20059;-87
2024/01/24 00:55:58;;;;;;;1.98;1.42;;;;;;;7.10;100.00;99884.25;5024782;28;20033;-87
2024/01/24 00:58:24;;;;;;;1.93;1.50;;;;;;;7.03;100.00;99869.97;5029087;28;20041;-86
2024/01/24 01:00:50;;;;;;;2.43;1.50;;;;;;;7.12;100.00;99866.34;5030195;28;20132;-86
2024/01/24 01:03:16;;;;;;;3.22;2.15;;;;;;;7.27;100.00;99879.81;5028525;28;20362;-87
2024/01/24 01:05:41;;;;;;;1.58;1.48;;;;;;;7.20;100.00;99838.97;5022319;28;20487;-86
2024/01/24 01:08:07;;;;;;;1.70;1.40;;;;;;;7.38;100.00;99857.44;5009188;28;20038;-86
2024/01/24 01:10:32;;;;;;;2.90;1.67;;;;;;;7.41;100.00;99870.38;5000511;28;20105;-87
2024/01/24 01:12:57;;;;;;;2.23;1.80;;;;;;;7.45;100.00;99839.84;5024409;28;20462;-86
2024/01/24 01:15:26;;;;;;;2.13;1.70;;;;;;;7.58;100.00;99836.69;5012277;28;20041;-87
2024/01/24 01:17:51;;;;;;;2.40;1.45;;;;;;;7.74;100.00;99841.19;5012189;28;20400;-87
2024/01/24 01:20:19;;;;;;;1.92;1.58;;;;;;;7.75;100.00;99826.91;5010600;28;20022;-87
2024/01/24 01:22:45;;;;;;;3.45;2.17;;;;;;;7.77;100.00;99824.91;5029902;28;20030;-87
2024/01/24 01:25:10;;;;;;;;;;;;;;;7.92;100.00;99820.59;5028897;28;20068;-87
2024/01/24 01:27:36;;;;;;;2.03;1.60;;;;;;;7.93;100.00;99803.63;5021317;28;19952;-87
2024/01/24 01:30:01;;;;;;;3.60;1.73;;;;;;;8.01;100.00;99793.00;5011985;28;20037;-86
2024/01/24 01:32:26;;;;;;;2.87;1.90;;;;;;;8.04;100.00;99774.03;5000862;28;20292;-90
2024/01/24 01:34:54;;;;;;;1.67;1.30;;;;;;;8.18;100.00;99793.78;5022870;28;20021;-86
2024/01/24 01:37:23;;;;;;;2.00;1.48;;;;;;;8.32;100.00;99772.81;5034673;28;20065;-87
2024/01/24 01:39:49;;;;;;;2.53;1.73;;;;;;;8.36;100.00;99766.97;5039303;28;20017;-87
2024/01/24 01:42:15;;;;;;;;;;;;;;;8.42;100.00;99768.16;5004197;28;20037;-89
2024/01/24 01:44:46;;;;;;;1.85;1.20;;;;;;;8.41;100.00;99759.34;5026569;28;19920;-87
2024/01/24 01:47:15;;;;;;;1.75;1.50;;;;;;;8.48;100.00;99763.97;5006713;28;20432;-87
2024/01/24 01:49:44;;;;;;;3.70;1.90;;;;;;;8.55;100.00;99760.44;4999052;28;20483;-88
2024/01/24 01:52:10;;;;;;;1.42;1.33;;;;;;;8.67;100.00;99752.91;5028699;28;20029;-86
2024/01/24 01:54:36;;;;;;;2.38;1.75;;;;;;;8.75;100.00;99750.19;5020445;28;20121;-86
2024/01/24 01:57:04;;;;;;;2.85;1.88;;;;;;;8.76;100.00;99740.41;5011482;28;20033;-87
2024/01/24 01:59:30;;;;;;;3.05;1.60;;;;;;;8.78;100.00;99744.53;5012030;28;20143;-87
2024/01/24 02:01:59;;;;;;;2.45;1.50;;;;;;;8.96;100.00;99730.09;5011587;28;20120;-87
2024/01/24 02:04:24;;;;;;;2.17;1.30;;;;;;;8.96;100.00;99735.44;5011129;28;20048;-87
2024/01/24 02:06:50;;;;;;;2.10;1.10;;;;;;;9.00;100.00;99718.09;5004076;28;20496;-88
2024/01/24 02:09:15;;;;;;;1.37;1.20;;;;;;;9.03;100.00;99718.56;5011423;28;20048;-88
2024/01/24 02:11:40;;;;;;;2.07;1.03;;;;;;;9.12;100.00;99713.19;5001781;28;20399;-88
2024/01/24 02:14:06;;;;;;;1.73;1.23;;;;;;;9.18;100.00;99702.66;5027816;28;20073;-88
2024/01/24 02:16:32;;;;;;;1.20;1.10;;;;;;;9.17;100.00;99700.16;5011277;28;20022;-88
2024/01/24 02:18:57;;;;;;;1.45;1.08;;;;;;;9.20;100.00;99708.63;5011314;28;20372;-88
2024/01/24 02:21:22;;;;;;;1.33;1.00;;;;;;;9.22;100.00;99693.28;5021330;28;20026;-87
2024/01/24 02:23:48;;;;;;;2.70;0.83;;;;;;;9.36;100.00;99706.81;5027665;28;20056;-89
2024/01/24 02:26:15;;;;;;;0.88;0.82;;;;;;;9.41;100.00;99696.47;5019400;28;20033;-88
2024/01/24 02:28:40;;;;;;;1.13;0.75;;;;;;;9.40;100.00;99678.81;5002989;28;20399;-88
2024/01/24 02:31:05;;;;;;;0.82;0.52;;;;;;;9.50;100.00;99679.38;5027903;28;20037;-89
2024/01/24 02:33:31;;;;;;;1.43;0.83;;;;;;;9.58;100.00;99683.84;5027672;28;20033;-87
2024/01/24 02:35:56;;;;;;;1.90;1.07;;;;;;;9.61;100.00;99686.94;5027463;28;20105;-88
2024/01/24 02:38:22;;;;;;;1.80;0.87;;;;;;;9.69;100.00;99689.53;5028461;28;20029;-88
2024/01/24 02:40:47;;;;;;;0.80;0.60;;;;;;;9.72;100.00;99694.50;5012974;28;20121;-87
2024/01/24 02:43:12;;;;;;;1.40;0.70;;;;;;;9.83;100.00;99690.56;5015011;28;20075;-88
2024/01/24 02:45:38;;;;;;;4.10;0.90;;;;;;;9.79;100.00;99696.44;5031256;28;20037;-89
2024/01/24 02:48:03;;;;;;;1.25;0.75;;;;;;;9.81;100.00;99686.41;5014904;28;20060;-88
2024/01/24 02:50:29;;;;;;;1.10;0.82;;;;;;;9.82;100.00;99688.06;5014601;28;20116;-87
2024/01/24 02:52:54;;;;;;;1.77;0.83;;;;;;;9.85;100.00;99685.03;5014960;28;20115;-87
2024/01/24 02:55:19;;;;;;;3.00;1.33;;;;;;;9.77;100.00;99675.28;5014408;28;20036;-87
2024/01/24 02:57:45;;;;;;;3.27;1.67;;;;;;;9.85;100.00;99677.84;5006274;28;20556;-87
2024/01/24 03:00:12;;;;;;;10.07;1.80;;;;;;;9.85;100.00;99672.53;5030913;28;20387;-87
2024/01/24 03:02:38;;;;;;;7.50;1.70;;;;;;;9.91;100.00;99670.97;5014495;28;21140;-90
2024/01/24 03:05:05;;;;;;;4.20;1.85;;;;;;;9.93;100.00;99640.44;5006821;28;20029;-87
2024/01/24 03:07:31;;;;;;;5.50;1.75;;;;;;;9.97;100.00;99658.72;5021896;28;20029;-87
2024/01/24 03:09:57;;;;;;;5.90;1.80;;;;;;;9.99;100.00;99641.53;5014325;28;20036;-87
2024/01/24 03:12:22;;;;;;;3.30;1.50;;;;;;;9.99;100.00;99640.72;5011131;28;20022;-87
2024/01/24 03:14:47;;;;;;;3.47;1.80;;;;;;;10.09;100.00;99635.91;5008010;28;20116;-88
2024/01/24 03:17:13;;;;;;;3.20;1.70;;;;;;;10.10;100.00;99629.56;5005361;28;20042;-88
2024/01/24 03:19:38;;;;;;;7.63;1.93;;;;;;;10.03;100.00;99612.66;5002841;28;20033;-88
2024/01/24 03:22:04;;;;;;;8.00;2.55;;;;;;;10.08;100.00;99610.25;5002929;28;20057;-87
2024/01/24 03:24:29;;;;;;;5.90;1.77;;;;;;;10.11;100.00;99578.72;5026780;28;20041;-87
2024/01/24 03:26:55;;;;;;;8.20;1.55;;;;;;;10.14;100.00;99591.69;5025465;28;20070;-88
2024/01/24 03:29:20;;;;;;;6.57;1.60;;;;;;;10.13;100.00;99581.19;5022438;28;20033;-87
2024/01/24 03:31:46;;;;;;;8.83;1.80;;;;;;;10.18;100.00;99612.63;5005808;28;20331;-88
2024/01/24 03:34:11;;;;;;;9.65;1.92;;;;;;;10.14;100.00;99580.19;5016052;28;20076;-91
2024/01/24 03:36:37;;;;;;;11.75;2.35;;;;;;;10.25;100.00;99584.19;5013682;28;20041;-87
2024/01/24 03:39:03;;;;;;;6.68;1.40;;;;;;;10.24;100.00;99574.56;5013878;28;20037;-87
2024/01/24 03:41:29;;;;;;;9.13;1.80;;;;;;;10.26;100.00;99585.84;4997842;28;20184;-87
2024/01/24 03:43:55;;;;;;;12.18;1.95;;;;;;;10.28;100.00;99565.16;5030628;28;20112;-88
2024/01/24 03:46:20;;;;;;;14.73;2.07;;;;;;;10.18;100.00;99536.09;5029954;28;20057;-88
2024/01/24 03:48:46;;;;;;;12.57;2.40;;;;;;;10.30;100.00;99539.97;5003033;28;20033;-87
2024/01/24 03:51:11;;;;;;;5.60;1.65;;;;;;;10.24;100.00;99523.88;5027923;28;20033;-88
2024/01/24 03:53:37;;;;;;;8.60;1.85;;;;;;;10.30;100.00;99533.78;4991046;28;20088;-88
2024/01/24 03:56:03;;;;;;;10.00;2.55;;;;;;;10.16;100.00;99514.16;5021247;28;20029;-88
2024/01/24 03:58:28;;;;;;;7.90;2.88;;;;;;;10.17;100.00;99507.78;5011788;28;20123;-88
2024/01/24 04:00:55;;;;;;;17.50;2.93;;;;;;;10.13;100.00;99510.00;5013546;28;20132;-88
2024/01/24 04:03:21;;;;;;;18.27;3.08;;;;;;;10.17;100.00;99485.63;5012647;28;20650;-88
2024/01/24 04:05:47;;;;;;;15.05;3.33;;;;;;;10.34;100.00;99449.69;5012994;28;20025;-88
2024/01/24 04:08:12;;;;;;;14.23;2.63;;;;;;;10.17;100.00;99466.97;5021510;28;20138;-88
2024/01/24 04:10:37;;;;;;;15.25;3.00;;;;;;;10.24;100.00;99435.84;5004957;28;20025;-89
2024/01/24 04:13:03;;;;;;;19.17;3.40;;;;;;;10.17;100.00;99400.28;5012899;28;20041;-89
2024/01/24 04:15:29;;;;;;;19.45;2.72;;;;;;;10.20;100.00;99414.06;5029110;28;20041;-89
2024/01/24 04:17:55;;;;;;;13.37;3.33;;;;;;;10.19;100.00;99367.06;5021373;28;20043;-88
2024/01/24 04:20:20;;;;;;;20.13;2.75;;;;;;;10.15;100.00;99382.63;5045671;28;20041;-88
2024/01/24 04:22:46;;;;;;;13.43;2.50;;;;;;;10.14;100.00;99367.66;5029840;28;20072;-88
2024/01/24 04:25:12;;;;;;;18.27;3.13;;;;;;;10.17;100.00;99357.63;5028017;28;20153;-89
2024/01/24 04:27:37;;;;;;;17.20;4.07;;;;;;;10.10;100.00;99352.22;5028955;28;20029;-89
2024/01/24 04:30:04;;;;;;;17.93;2.80;;;;;;;10.17;100.00;99349.63;5029695;28;20033;-89
2024/01/24 04:32:30;;;;;;;18.08;3.17;;;;;;;10.24;100.00;99327.31;5028900;28;20017;-89
2024/01/24 04:34:57;;;;;;;12.27;3.35;;;;;;;10.38;100.00;99309.56;5011800;28;20036;-89
2024/01/24 04:37:23;;;;;;;19.10;4.97;;;;;;;10.23;100.00;99275.00;5031510;28;20046;-89
2024/01/24 04:39:50;;;;;;;22.88;3.53;;;;;;;10.23;100.00;99256.31;5029444;28;20107;-90
2024/01/24 04:42:17;;;;;;;22.65;4.30;;;;;;;10.22;100.00;99261.84;5004255;28;20136;-90
2024/01/24 04:44:43;;;;;;;26.87;3.93;;;;;;;10.24;100.00;99273.13;5044712;28;20112;-89
2024/01/24 04:47:09;;;;;;;22.10;4.10;;;;;;;10.23;100.00;99263.47;5028311;28;20069;-89
2024/01/24 04:49:34;;;;;;;18.33;3.92;;;;;;;10.10;100.00;99267.72;5028022;28;20028;-89
2024/01/24 04:52:00;;;;;;;15.37;3.57;;;;;;;10.22;100.00;99256.50;5029153;28;20029;-89
2024/01/24 04:54:25;;;;;;;17.05;3.10;;;;;;;10.25;100.00;99262.25;5018764;28;20439;-89
2024/01/24 04:56:51;;;;;;;23.57;3.40;;;;;;;10.26;100.00;99284.44;5028899;28;20037;-89
2024/01/24 04:59:19;;;;;;;23.13;4.93;;;;;;;10.12;100.00;99225.69;5004355;28;20034;-89
2024/01/24 05:01:44;;;;;;;16.83;3.25;;;;;;;10.25;100.00;99272.09;5028834;28;20103;-89
2024/01/24 05:04:10;;;;;;;14.33;2.83;;;;;;;10.17;100.00;99278.44;5044693;28;20080;-88
2024/01/24 05:06:35;;;;;;;16.83;3.97;;;;;;;10.11;100.00;99263.19;5011831;28;20116;-88
2024/01/24 05:09:02;;;;;;;28.27;4.30;;;;;;;10.10;100.00;99213.56;5012652;28;20110;-89
2024/01/24 05:11:40;;;;;;;24.48;3.95;;;;;;;10.15;100.00;99211.94;5013467;28;20014;-89
2024/01/24 05:14:05;;;;;;;24.55;3.22;;;;;;;10.12;100.00;99190.19;5012406;28;20034;-91
2024/01/24 05:16:30;;;;;;;22.27;3.53;;;;;;;10.15;100.00;99173.78;5012077;28;20037;-89
2024/01/24 05:18:56;;;;;;;19.60;4.00;;;;;;;10.11;100.00;99183.19;5011456;28;20037;-88
2024/01/24 05:21:21;;;;;;;21.77;3.53;;;;;;;9.99;100.00;99198.94;5027930;28;20044;-88
2024/01/24 05:23:47;;;;;;;29.80;4.60;;;;;;;10.06;100.00;99215.78;5027483;28;20036;-88
2024/01/24 05:26:12;;;;;;;25.80;4.63;;;;;;;10.04;100.00;99161.81;5002590;28;20878;-89
2024/01/24 05:28:37;;;;;;;23.53;5.90;;;;;;;10.04;100.00;99159.16;5031856;28;20034;-89
2024/01/24 05:31:03;;;;;;;18.60;4.27;;;;;;;9.89;100.00;99161.16;5012759;28;20034;-89
2024/01/24 05:33:28;;;;;;;32.70;5.87;;;;;;;9.90;100.00;99136.97;5023519;28;20427;-88
2024/01/24 05:35:53;;;;;;;25.07;4.97;;;;;;;9.86;100.00;99129.56;5005994;28;20484;-88
2024/01/24 05:38:29;;;;;;;20.00;4.80;;;;;;;9.74;100.00;99121.31;5026867;28;20033;-88
2024/01/24 05:40:57;;;;;;;30.95;4.50;;;;;;;9.78;100.00;99105.72;5006183;28;20033;-88
2024/01/24 05:43:23;;;;;;;22.90;4.77;;;;;;;9.80;100.00;99071.69;5001589;28;20038;-89
2024/01/24 05:45:51;;;;;;;38.43;5.63;;;;;;;9.76;100.00;98987.84;5027375;28;20040;-88
2024/01/24 05:48:17;;;;;;;35.55;5.47;;;;;;;9.82;100.00;98995.03;5035273;28;20268;-88
2024/01/24 05:50:43;;;;;;;30.80;5.57;;;;;;;9.69;100.00;99007.31;5011237;28;20030;-88
2024/01/24 05:53:08;;;;;;;36.38;5.68;;;;;;;9.72;100.00;99006.91;4997904;28;20033;-88
2024/01/24 05:55:36;;;;;;;34.70;6.60;;;;;;;9.75;100.00;98970.22;5018082;28;20045;-89
2024/01/24 05:58:01;;;;;;;38.92;6.72;;;;;;;9.67;100.00;98948.06;5011414;28;20072;-88
2024/01/24 06:00:27;;;;;;;35.13;7.53;;;;;;;9.65;100.00;98936.78;5010623;28;20057;-89
2024/01/24 06:02:52;;;;;;;29.40;6.30;;;;;;;9.61;100.00;98895.56;5004816;28;20038;-89
2024/01/24 06:05:18;;;;;;;34.70;7.17;;;;;;;9.62;100.00;98894.56;5013802;28;20432;-90
2024/01/24 06:07:43;;;;;;;31.67;6.68;;;;;;;9.56;100.00;98806.63;5002537;28;20034;-89
2024/01/24 06:10:10;;;;;;;41.50;8.20;;;;;;;9.62;100.00;98851.06;5012205;28;20125;-89
2024/01/24 06:12:35;;;;;;;42.63;6.45;;;;;;;9.65;100.00;98845.38;5026598;28;20082;-88
2024/01/24 06:15:02;;;;;;;31.40;5.63;;;;;;;9.63;100.00;98826.09;5011645;28;20037;-89
2024/01/24 06:17:27;;;;;;;35.42;7.00;;;;;;;9.63;100.00;98874.88;5007032;28;20038;-88
2024/01/24 06:19:53;;;;;;;42.60;7.47;;;;;;;9.57;100.00;98865.00;5015435;28;20076;-89
2024/01/24 06:22:18;;;;;;;33.75;6.80;;;;;;;9.52;100.00;98873.59;4995924;28;20049;-90
2024/01/24 06:24:44;;;;;;;40.63;7.63;;;;;;;9.48;100.00;98892.84;5019282;28;20384;-88
2024/01/24 06:27:10;;;;;;;29.25;6.18;;;;;;;9.47;100.00;98920.53;5019762;28;20037;-89
2024/01/24 06:29:35;;;;;;;31.75;8.23;;;;;;;9.37;100.00;98999.97;5037156;28;20500;-89
2024/01/24 06:32:01;;;;;;;31.83;6.43;;;;;;;9.34;100.00;99093.56;5003595;28;20026;-88
2024/01/24 06:34:26;;;;;;;30.43;6.83;;;;;;;9.26;100.00;99060.75;5011041;28;20559;-89
2024/01/24 06:36:52;;;;;;;36.93;5.77;;;;;;;9.29;100.00;99060.38;5007773;28;20035;-88
2024/01/24 06:39:17;;;;;;;43.65;9.32;;;;;;;9.28;100.00;99077.34;5005592;28;20124;-89
2024/01/24 06:41:44;;;;;;;38.40;7.27;;;;;;;9.37;100.00;99042.59;5007296;28;20040;-87
2024/01/24 06:44:09;;;;;;;;;;;;;;;9.26;100.00;98948.91;5005121;28;20656;-89
2024/01/24 06:46:44;;;;;;;43.38;6.35;;;;;;;9.37;100.00;98886.28;5030027;28;19921;-88
2024/01/24 06:49:10;;;;;;;24.88;6.82;;;;;;;9.39;100.00;98833.63;5015863;28;20048;-88
2024/01/24 06:51:39;;;;;;;33.83;7.15;;;;;;;9.29;100.00;98761.28;5013978;28;20037;-88
2024/01/24 06:54:05;;;;;;;33.38;6.55;;;;;;;9.38;100.00;98721.97;5008170;28;20447;-88
2024/01/24 06:56:31;;;;;;;37.90;6.72;;;;;;;9.35;100.00;98754.34;5020402;28;20111;-87
2024/01/24 06:58:56;;;;;;;43.33;9.07;;;;;;;9.27;100.00;98736.69;5000504;28;20124;-88
2024/01/24 07:01:21;;;;;;;35.57;6.17;;;;;;;9.14;100.00;98732.19;5005721;28;20037;-87
2024/01/24 07:03:47;;;;;;;33.97;8.80;;;;;;;9.29;100.00;98740.81;5023658;28;20029;-88
2024/01/24 07:06:13;;;;;;;37.40;6.93;;;;;;;9.24;100.00;98687.34;5006208;28;20029;-87
2024/01/24 07:08:40;;;;;;;31.08;6.15;;;;;;;9.10;100.00;98669.72;5020753;28;20512;-88
2024/01/24 07:11:05;;;;;;;33.72;5.57;;;;;;;9.23;100.00;98682.22;5001617;28;20567;-87
2024/01/24 07:13:31;;;;;;;41.78;7.50;;;;;;;9.27;100.00;98656.81;5030713;28;20092;-88
2024/01/24 07:15:56;;;;;;;25.80;5.93;;;;;;;9.25;100.00;98637.59;5014148;28;20037;-88
2024/01/24 07:18:22;;;;;;;33.80;5.65;;;;;;;9.36;100.00;98684.06;5022232;28;20676;-88
2024/01/24 07:20:47;;;;;;;31.65;6.97;;;;;;;9.23;100.00;98640.44;5030757;28;20502;-88
2024/01/24 07:23:13;;;;;;;29.77;6.20;;;;;;;9.18;100.00;98613.63;5014284;28;20048;-89
2024/01/24 07:25:38;;;;;;;38.73;6.83;;;;;;;9.21;100.00;98642.47;5010754;28;20280;-88
2024/01/24 07:28:04;;;;;;;35.27;6.63;;;;;;;9.14;100.00;98660.31;5025508;28;20034;-88
2024/01/24 07:30:29;;;;;;;41.08;7.78;;;;;;;9.15;100.00;98659.25;5028500;28;20044;-88
2024/01/24 07:32:54;;;;;;;38.03;6.67;;;;;;;9.02;100.00;98665.41;5007902;28;20036;-88
2024/01/24 07:35:20;;;;;;;43.93;7.83;;;;;;;9.20;100.00;98727.88;5030146;28;20488;-88
2024/01/24 07:37:45;;;;;;;33.23;7.47;;;;;;;9.15;100.00;98741.78;5014235;28;20400;-88
2024/01/24 07:40:12;;;;;;;35.93;5.83;;;;;;;9.07;100.00;98771.28;5023102;28;20044;-87
2024/01/24 07:42:37;;;;;;;38.25;7.38;;;;;;;9.16;100.00;98847.28;5010399;28;20345;-88
2024/01/24 07:45:03;;;;;;;46.77;6.97;;;;;;;9.22;100.00;98883.75;5008586;28;20076;-88
2024/01/24 07:47:29;;;;;;;33.67;7.63;;;;;;;9.17;100.00;98912.00;5045231;28;20045;-86
2024/01/24 07:49:55;;;;;;;38.38;8.90;;;;;;;9.15;100.00;98948.66;5022845;28;20041;-87
2024/01/24 07:52:20;;;;;;;34.25;6.75;;;;;;;9.13;100.00;98921.41;5029819;28;20391;-87
2024/01/24 07:54:46;;;;;;;39.97;7.00;;;;;;;9.19;100.00;98913.44;5022248;28;20028;-86
2024/01/24 07:57:11;;;;;;;28.10;5.90;;;;;;;9.13;100.00;98879.63;5013898;28;20542;-86
2024/01/24 07:59:36;;;;;;;41.60;6.87;;;;;;;9.14;100.00;98848.50;5019121;28;20492;-86
2024/01/24 08:02:03;;;;;;;33.77;5.73;;;;;;;9.08;100.00;98890.03;5024501;28;20037;-85
2024/01/24 08:04:30;;;;;;;34.35;8.40;;;;;;;9.19;100.00;98945.41;5020164;28;20038;-85
2024/01/24 08:06:56;;;;;;;28.92;7.22;;;;;;;9.19;100.00;98957.88;5005378;28;20037;-85
2024/01/24 08:09:21;;;;;;;32.75;7.18;;;;;;;9.16;100.00;98932.47;5021451;28;20408;-87
2024/01/24 08:11:46;;;;;;;27.07;6.33;;;;;;;9.08;100.00;98898.03;5006416;28;20561;-86
2024/01/24 08:14:12;;;;;;;35.57;8.03;;;;;;;9.03;100.00;98890.63;4993466;28;20486;-85
2024/01/24 08:16:37;;;;;;;39.05;7.35;;;;;;;9.01;100.00;98865.22;5003950;28;20152;-86
2024/01/24 08:19:03;;;;;;;36.13;7.40;;;;;;;9.03;100.00;98864.00;5007464;28;20033;-85
2024/01/24 08:21:28;;;;;;;48.60;8.43;;;;;;;9.14;100.00;98875.94;5011366;28;20033;-86
2024/01/24 08:23:53;;;;;;;33.37;7.87;;;;;;;9.21;100.00;98769.47;5013806;28;20029;-85
2024/01/24 08:26:19;;;;;;;32.17;7.93;;;;;;;9.15;100.00;98780.91;5010295;28;20094;-85
2024/01/24 08:28:44;;;;;;;52.92;9.02;;;;;;;9.06;100.00;98767.81;4992172;28;20034;-86
2024/01/24 08:31:10;;;;;;;41.83;7.50;;;;;;;9.15;100.00;98803.03;4992265;28;20120;-87
2024/01/24 08:33:36;;;;;;;39.08;7.22;;;;;;;9.20;100.00;98802.44;4989613;28;20087;-87
2024/01/24 08:36:02;;;;;;;38.85;8.70;;;;;;;9.06;100.00;98746.50;4993336;28;20050;-86
2024/01/24 08:38:27;;;;;;;39.92;8.00;;;;;;;8.99;100.00;98745.69;5009734;28;20030;-87
2024/01/24 08:40:52;;;;;;;48.80;7.73;;;;;;;9.06;100.00;98783.78;5011047;28;20034;-85
2024/01/24 08:43:18;;;;;;;39.42;7.82;;;;;;;9.07;100.00;98784.59;5005617;28;20037;-86
2024/01/24 08:45:43;;;;;;;43.17;8.07;;;;;;;9.07;100.00;98801.38;4996615;28;20080;-85
2024/01/24 08:48:09;;;;;;;51.87;11.77;;;;;;;9.10;100.00;98800.16;5010571;28;20091;-87
2024/01/24 08:50:34;;;;;;;48.97;8.85;;;;;;;8.99;100.00;98734.19;5004429;28;20038;-87
2024/01/24 08:53:00;;;;;;;31.88;6.82;;;;;;;8.96;100.00;98801.13;4995048;28;20113;-88
2024/01/24 08:55:25;;;;;;;51.17;11.33;;;;;;;8.87;100.00;98774.72;4988547;28;20083;-87
2024/01/24 08:57:50;;;;;;;44.03;9.00;;;;;;;9.04;100.00;98799.13;4995285;28;20037;-87
2024/01/24 09:00:16;;;;;;;44.83;7.17;;;;;;;8.96;100.00;98761.22;4994653;28;20030;-87
2024/01/24 09:02:42;;;;;;;44.33;8.70;;;;;;;8.91;100.00;98737.03;4990035;28;20033;-87
2024/01/24 09:05:08;;;;;;;48.08;10.40;;;;;;;8.94;100.00;98688.72;4993865;28;20076;-87
2024/01/24 09:07:34;;;;;;;;;;;;;;;8.98;100.00;98727.22;5009827;28;20124;-86
2024/01/24 09:09:59;;;;;;;38.03;10.00;;;;;;;8.87;100.00;98713.50;5022878;28;20004;-86
2024/01/24 09:12:24;;;;;;;47.13;9.30;;;;;;;8.99;100.00;98760.81;5009111;28;20046;-85
2024/01/24 09:14:50;;;;;;;34.93;7.67;;;;;;;8.95;100.00;98765.72;4995483;28;20040;-87
2024/01/24 09:17:17;;;;;;;35.37;9.13;;;;;;;8.92;100.00;98786.56;4995120;28;20033;-87
2024/01/24 09:19:42;;;;;;;39.95;10.13;;;;;;;8.88;100.00;98824.25;5007026;28;20025;-87
2024/01/24 09:22:09;;;;;;;44.92;7.40;;;;;;;8.88;100.00;98797.63;5028764;28;20392;-86
2024/01/24 09:24:35;;;;;;;48.50;8.68;;;;;;;8.85;100.00;98775.94;5009976;28;20038;-86
2024/01/24 09:27:02;;;;;;;46.15;9.18;;;;;;;8.82;100.00;98798.41;5029906;28;20083;-87
2024/01/24 09:29:28;;;;;;;46.13;8.95;;;;;;;8.78;100.00;98793.69;5044712;28;20037;-87
2024/01/24 09:31:53;;;;;;;37.65;7.03;;;;;;;8.91;100.00;98848.81;5012123;28;20040;-87
2024/01/24 09:34:19;;;;;;;48.60;9.87;;;;;;;8.78;100.00;98855.72;5020119;28;20049;-87
2024/01/24 09:36:44;;;;;;;46.80;11.03;;;;;;;8.75;100.00;98885.38;5017205;28;20124;-86
2024/01/24 09:39:10;;;;;;;52.72;8.13;;;;;;;8.77;100.00;98920.59;5023461;28;20294;-86
2024/01/24 09:41:40;;;;;;;45.88;7.80;;;;;;;8.73;100.00;98906.03;5011723;28;20038;-87
2024/01/24 09:44:09;;;;;;;47.05;9.57;;;;;;;8.71;100.00;98886.81;5028315;28;20037;-87
2024/01/24 09:46:40;;;;;;;55.97;9.80;;;;;;;8.77;100.00;98886.00;5005131;28;20034;-87
2024/01/24 09:49:06;;;;;;;54.17;8.05;;;;;;;8.82;100.00;98986.53;5019091;28;20041;-87
2024/01/24 09:51:33;;;;;;;46.28;10.52;;;;;;;8.69;100.00;99068.94;4999698;28;20072;-87
2024/01/24 09:54:08;;;;;;;49.47;10.00;;;;;;;8.57;100.00;99193.59;5020079;28;20039;-86
2024/01/24 09:56:38;;;;;;;47.60;8.25;;;;;;;8.45;100.00;99294.34;5006083;28;20482;-86
2024/01/24 09:59:04;;;;;;;54.75;10.57;;;;;;;8.20;100.00;99379.66;5003497;28;20032;-88
2024/01/24 10:01:39;;;;;;;48.25;9.50;;;;;;;8.14;100.00;99446.84;5011430;28;20041;-87
2024/01/24 10:04:06;;;;;;;55.05;12.10;;;;;;;8.26;100.00;99431.28;5024328;28;20090;-87
2024/01/24 10:06:32;;;;;;;47.50;9.30;;;;;;;8.27;100.00;99446.25;5009186;28;20041;-87
2024/01/24 10:08:58;;;;;;;55.67;10.40;;;;;;;8.13;100.00;99548.06;5002998;28;20120;-87
2024/01/24 10:11:27;;;;;;;66.70;10.05;;;;;;;8.10;100.00;99633.47;5028999;28;20064;-87
2024/01/24 10:13:59;;;;;;;45.53;9.70;;;;;;;8.17;100.00;99650.38;5019974;28;20098;-87
2024/01/24 10:16:26;;;;;;;49.13;10.48;;;;;;;8.11;100.00;99580.13;5026006;28;20562;-87
2024/01/24 10:18:53;;;;;;;55.38;10.43;;;;;;;8.16;100.00;99531.75;5003010;28;20361;-87
2024/01/24 10:21:18;;;;;;;55.97;9.55;;;;;;;8.16;100.00;99482.06;5027762;28;20040;-88
2024/01/24 10:23:43;;;;;;;51.47;8.27;;;;;;;8.32;100.00;99448.38;5036098;28;20041;-88
2024/01/24 10:26:09;;;;;;;42.80;9.57;;;;;;;8.31;100.00;99369.59;5003258;28;20037;-86
2024/01/24 10:28:35;;;;;;;45.78;8.70;;;;;;;8.38;100.00;99347.44;5044568;28;20033;-88
2024/01/24 10:31:04;;;;;;;66.60;10.75;;;;;;;8.36;100.00;99361.91;5019954;28;20053;-88
2024/01/24 10:33:30;;;;;;;46.42;11.40;;;;;;;8.40;100.00;99419.06;5019897;28;20085;-89
2024/01/24 10:35:56;;;;;;;62.30;12.00;;;;;;;8.21;100.00;99449.63;4996261;28;20507;-87
2024/01/24 10:38:24;;;;;;;;;;;;;;;8.05;100.00;99540.94;5008080;28;20505;-87
2024/01/24 10:40:58;;;;;;;48.65;9.75;;;;;;;7.97;100.00;99557.78;5016195;28;19921;-88
2024/01/24 10:43:25;;;;;;;61.22;12.55;;;;;;;8.04;100.00;99627.84;5007623;28;20037;-88
2024/01/24 10:45:51;;;;;;;52.65;11.05;;;;;;;8.02;100.00;99688.31;5001509;28;20029;-87
2024/01/24 10:48:17;;;;;;;46.95;9.15;;;;;;;7.91;100.00;99672.75;5007199;28;20023;-87
2024/01/24 10:50:43;;;;;;;49.28;9.48;;;;;;;7.89;100.00;99661.47;5041970;28;20038;-87
2024/01/24 10:53:09;;;;;;;45.63;8.43;;;;;;;7.90;100.00;99707.47;5008764;28;20084;-84
2024/01/24 10:55:36;;;;;;;64.35;10.20;;;;;;;7.87;100.00;99713.97;5017603;28;20038;-87
2024/01/24 10:58:02;;;;;;;57.15;13.95;;;;;;;7.86;100.00;99759.31;4998485;28;20076;-87
2024/01/24 11:00:28;;;;;;;54.63;10.38;;;;;;;7.84;100.00;99775.41;5008156;28;20045;-85
2024/01/24 11:02:54;;;;;;;;;;;;;;;7.79;100.00;99775.91;5030985;28;20033;-86
2024/01/24 11:05:29;;;;;;;47.50;7.07;;;;;;;7.64;100.00;99792.72;5032263;28;19963;-86
2024/01/24 11:08:06;;;;;;;54.13;10.23;;;;;;;7.66;100.00;99817.28;5031301;28;20048;-87
2024/01/24 11:10:42;;;;;;;51.05;9.80;;;;;;;7.66;100.00;99831.41;5006707;28;20037;-86
2024/01/24 11:13:10;;;;;;;39.38;7.57;;;;;;;7.69;100.00;99816.94;5031656;28;20495;-87
2024/01/24 11:15:35;;;;;;;50.42;10.32;;;;;;;7.70;100.00;99839.84;5006216;28;20068;-86
2024/01/24 11:18:25;;;;;;;52.05;10.23;;;;;;;7.63;100.00;99817.59;5001909;28;20053;-86
2024/01/24 11:20:51;;;;;;;53.28;10.55;;;;;;;7.64;100.00;99822.75;5006926;28;20056;-87